createdAt,value
2022-11-23T00:01:45.947Z,50.32
2022-11-23T00:04:14.045Z,50.86
2022-11-23T00:06:42.122Z,51.31
2022-11-23T00:09:11.558Z,51.07
2022-11-23T00:11:38.970Z,51.28
2022-11-23T00:14:06.531Z,51.33
2022-11-23T00:16:33.969Z,51.74
2022-11-23T00:19:02.215Z,51.50
2022-11-23T00:21:32.517Z,51.78
2022-11-23T00:24:00.106Z,51.74
2022-11-23T00:26:27.730Z,51.87
2022-11-23T00:28:55.523Z,52.33
2022-11-23T00:31:27.591Z,51.64
2022-11-23T00:33:56.651Z,51.90
2022-11-23T00:36:25.913Z,51.65
2022-11-23T00:38:57.963Z,51.33
2022-11-23T00:41:27.542Z,51.23
2022-11-23T00:43:54.856Z,51.03
2022-11-23T00:46:26.981Z,50.97
2022-11-23T00:48:56.480Z,50.68
2022-11-23T00:51:29.157Z,50.90
2022-11-23T00:53:57.403Z,51.12
2022-11-23T00:56:26.648Z,51.24
2022-11-23T00:58:56.394Z,51.27
2022-11-23T01:01:37.218Z,51.55
2022-11-23T01:04:07.994Z,51.29
2022-11-23T01:06:38.112Z,51.62
2022-11-23T01:09:12.496Z,52.28
2022-11-23T01:11:40.000Z,52.37
2022-11-23T01:14:07.846Z,52.20
2022-11-23T01:16:38.152Z,52.40
2022-11-23T01:19:12.493Z,52.51
2022-11-23T01:21:40.269Z,52.65
2022-11-23T01:24:09.819Z,52.92
2022-11-23T01:26:40.127Z,52.75
2022-11-23T01:29:07.951Z,52.23
2022-11-23T01:31:35.440Z,52.49
2022-11-23T01:34:03.909Z,52.83
2022-11-23T01:36:35.010Z,52.77
2022-11-23T01:39:04.757Z,52.90
2022-11-23T01:41:35.728Z,53.49
2022-11-23T01:44:37.144Z,54.37
2022-11-23T01:47:07.394Z,53.34
2022-11-23T01:49:44.982Z,53.03
2022-11-23T01:52:17.076Z,52.95
2022-11-23T01:54:49.102Z,53.57
2022-11-23T01:57:23.364Z,54.14
2022-11-23T01:59:51.939Z,53.76
2022-11-23T02:02:19.813Z,54.30
2022-11-23T02:04:53.208Z,54.39
2022-11-23T02:07:22.522Z,54.29
2022-11-23T02:09:53.053Z,53.90
2022-11-23T02:12:20.973Z,53.91
2022-11-23T02:14:48.670Z,53.74
2022-11-23T02:17:22.428Z,53.78
2022-11-23T02:20:10.967Z,54.81
2022-11-23T02:23:08.409Z,54.75
2022-11-23T02:25:50.676Z,55.37
2022-11-23T02:28:29.687Z,55.40
2022-11-23T02:30:57.316Z,54.95
2022-11-23T02:33:25.750Z,54.97
2022-11-23T02:35:58.659Z,55.13
2022-11-23T02:38:32.121Z,55.34
2022-11-23T02:41:00.637Z,55.30
2022-11-23T02:43:31.139Z,55.46
2022-11-23T02:46:06.142Z,55.89
2022-11-23T02:48:34.261Z,55.32
2022-11-23T02:51:07.693Z,55.74
2022-11-23T02:53:41.297Z,55.72
2022-11-23T02:56:10.963Z,55.80
2022-11-23T02:58:47.537Z,55.92
2022-11-23T03:01:34.068Z,55.56
2022-11-23T03:04:05.084Z,55.96
2022-11-23T03:06:32.763Z,56.27
2022-11-23T03:09:02.708Z,55.80
2022-11-23T03:11:33.958Z,56.20
2022-11-23T03:14:04.985Z,56.09
2022-11-23T03:16:41.262Z,55.32
2022-11-23T03:19:09.178Z,55.47
2022-11-23T03:21:37.605Z,55.38
2022-11-23T03:24:14.533Z,55.40
2022-11-23T03:26:42.204Z,55.31
2022-11-23T03:29:11.107Z,55.81
2022-11-23T03:31:42.630Z,55.91
2022-11-23T03:34:13.160Z,56.07
2022-11-23T03:36:41.251Z,56.26
2022-11-23T03:39:12.562Z,56.74
2022-11-23T03:42:03.661Z,56.39
2022-11-23T03:44:35.127Z,56.28
2022-11-23T03:47:03.448Z,56.36
2022-11-23T03:49:31.325Z,56.07
2022-11-23T03:51:59.455Z,56.71
2022-11-23T03:54:28.296Z,56.61
2022-11-23T03:56:55.821Z,56.25
2022-11-23T03:59:30.450Z,56.36
2022-11-23T04:02:02.039Z,56.88
2022-11-23T04:04:40.335Z,57.35
2022-11-23T04:07:25.134Z,57.68
2022-11-23T04:09:55.439Z,57.41
2022-11-23T04:12:27.933Z,57.56
2022-11-23T04:14:56.348Z,57.35
2022-11-23T04:17:24.892Z,57.59
2022-11-23T04:19:53.206Z,57.59
2022-11-23T04:22:20.603Z,57.93
2022-11-23T04:24:48.607Z,58.51
2022-11-23T04:27:16.578Z,59.28
2022-11-23T04:29:44.010Z,59.84
2022-11-23T04:32:11.604Z,58.48
2022-11-23T04:34:39.775Z,58.28
2022-11-23T04:37:13.038Z,57.58
2022-11-23T04:39:42.525Z,56.42
2022-11-23T04:42:13.105Z,55.97
2022-11-23T04:44:47.440Z,56.00
2022-11-23T04:47:14.876Z,56.23
2022-11-23T04:49:45.652Z,56.73
2022-11-23T04:52:13.135Z,56.06
2022-11-23T04:54:46.278Z,55.82
2022-11-23T04:57:14.031Z,55.37
2022-11-23T04:59:43.167Z,55.30
2022-11-23T05:02:10.700Z,55.18
2022-11-23T05:04:45.761Z,55.25
2022-11-23T05:07:14.730Z,55.42
2022-11-23T05:09:45.565Z,55.02
2022-11-23T05:12:16.489Z,55.45
2022-11-23T05:14:43.913Z,54.82
2022-11-23T05:17:12.998Z,54.16
2022-11-23T05:19:42.078Z,54.40
2022-11-23T05:22:09.651Z,54.29
2022-11-23T05:24:40.620Z,54.01
2022-11-23T05:27:11.369Z,54.34
2022-11-23T05:29:39.385Z,53.72
2022-11-23T05:32:08.120Z,53.78
2022-11-23T05:34:35.532Z,53.42
2022-11-23T05:37:04.729Z,53.78
2022-11-23T05:39:32.684Z,53.63
2022-11-23T05:42:01.695Z,53.62
2022-11-23T05:44:33.996Z,52.77
2022-11-23T05:47:01.783Z,52.92
2022-11-23T05:49:32.422Z,52.78
2022-11-23T05:52:03.774Z,52.94
2022-11-23T05:54:32.384Z,52.46
2022-11-23T05:57:14.400Z,52.27
2022-11-23T05:59:43.863Z,52.66
2022-11-23T06:02:24.424Z,52.71
2022-11-23T06:04:56.633Z,52.28
2022-11-23T06:07:36.417Z,51.17
2022-11-23T06:10:08.615Z,51.75
2022-11-23T06:12:41.011Z,51.99
2022-11-23T06:15:13.540Z,50.82
2022-11-23T06:17:41.432Z,50.16
2022-11-23T06:20:14.296Z,50.24
2022-11-23T06:22:52.756Z,49.07
2022-11-23T06:25:22.373Z,48.87
2022-11-23T06:27:58.044Z,46.48
2022-11-23T06:30:31.076Z,46.63
2022-11-23T06:33:05.794Z,46.31
2022-11-23T06:35:39.854Z,45.42
2022-11-23T06:38:07.315Z,44.28
2022-11-23T06:40:35.102Z,43.34
2022-11-23T06:43:03.700Z,43.26
2022-11-23T06:45:42.681Z,42.85
2022-11-23T06:48:14.291Z,42.15
2022-11-23T06:50:46.843Z,42.33
2022-11-23T06:53:16.256Z,42.40
2022-11-23T06:55:48.338Z,42.70
2022-11-23T06:58:18.809Z,42.50
2022-11-23T07:00:46.287Z,42.84
2022-11-23T07:03:21.274Z,43.09
2022-11-23T07:05:51.738Z,43.43
2022-11-23T07:08:21.944Z,43.55
2022-11-23T07:10:50.017Z,43.61
2022-11-23T07:13:18.136Z,44.07
2022-11-23T07:15:46.817Z,44.68
2022-11-23T07:18:15.061Z,44.92
2022-11-23T07:20:49.060Z,45.27
2022-11-23T07:23:16.547Z,45.62
2022-11-23T07:25:43.969Z,46.26
2022-11-23T07:28:14.354Z,46.26
2022-11-23T07:30:42.188Z,46.23
2022-11-23T07:33:12.125Z,46.81
2022-11-23T07:35:41.291Z,47.01
2022-11-23T07:38:09.842Z,47.05
2022-11-23T07:40:39.219Z,46.78
2022-11-23T07:43:13.131Z,47.09
2022-11-23T07:45:40.573Z,47.04
2022-11-23T07:48:12.629Z,47.42
2022-11-23T07:50:40.722Z,47.71
2022-11-23T07:53:08.677Z,48.32
2022-11-23T07:55:36.162Z,48.25
2022-11-23T07:58:03.732Z,48.82
2022-11-23T08:00:31.189Z,48.76
2022-11-23T08:05:47.057Z,50.05
2022-11-23T08:08:14.501Z,50.31
2022-11-23T08:10:46.180Z,50.93
2022-11-23T08:13:16.042Z,50.78
2022-11-23T08:15:44.320Z,50.83
2022-11-23T08:18:13.921Z,50.97
2022-11-23T08:20:41.317Z,51.40
2022-11-23T08:23:08.860Z,51.52
2022-11-23T08:25:36.235Z,51.60
2022-11-23T08:28:04.869Z,51.76
2022-11-23T08:30:34.072Z,51.96
2022-11-23T08:33:09.509Z,52.42
2022-11-23T08:35:38.497Z,52.83
2022-11-23T08:38:07.338Z,53.08
2022-11-23T08:40:35.780Z,53.48
2022-11-23T08:43:03.497Z,53.75
2022-11-23T08:45:31.071Z,53.86
2022-11-23T08:48:03.678Z,54.06
2022-11-23T08:50:34.596Z,53.89
2022-11-23T08:53:02.179Z,53.84
2022-11-23T08:55:30.231Z,54.07
2022-11-23T08:57:58.732Z,54.18
2022-11-23T09:00:27.852Z,54.11
2022-11-23T09:02:57.288Z,54.17
2022-11-23T09:05:25.357Z,54.16
2022-11-23T09:07:53.907Z,54.11
2022-11-23T09:10:21.975Z,53.93
2022-11-23T09:12:49.614Z,53.90
2022-11-23T09:15:17.299Z,53.74
2022-11-23T09:17:45.230Z,53.60
2022-11-23T09:20:12.949Z,53.63
2022-11-23T09:22:40.629Z,53.86
2022-11-23T09:25:09.174Z,53.94
2022-11-23T09:27:36.816Z,54.03
2022-11-23T09:30:05.124Z,54.12
2022-11-23T09:32:33.194Z,54.37
2022-11-23T09:35:19.451Z,53.64
2022-11-23T09:38:05.111Z,54.06
2022-11-23T09:40:36.594Z,54.25
2022-11-23T09:43:13.006Z,54.88
2022-11-23T09:45:53.287Z,55.27
2022-11-23T09:48:32.424Z,55.46
2022-11-23T09:51:23.625Z,55.82
2022-11-23T09:54:01.063Z,55.52
2022-11-23T09:56:39.080Z,55.78
2022-11-23T09:59:22.847Z,56.02
2022-11-23T10:01:51.120Z,56.04
2022-11-23T10:04:20.695Z,56.26
2022-11-23T10:07:09.757Z,56.12
2022-11-23T10:09:54.422Z,56.08
2022-11-23T10:13:00.216Z,56.69
2022-11-23T10:15:34.278Z,56.97
2022-11-23T10:18:01.620Z,57.05
2022-11-23T10:20:52.161Z,57.75
2022-11-23T10:23:40.887Z,58.33
2022-11-23T10:26:16.843Z,58.42
2022-11-23T10:28:46.077Z,58.51
2022-11-23T10:31:19.506Z,59.34
2022-11-23T10:34:04.851Z,59.15
2022-11-23T10:36:36.446Z,59.80
2022-11-23T10:39:28.525Z,59.52
2022-11-23T10:42:03.499Z,60.31
2022-11-23T10:44:38.295Z,60.13
2022-11-23T10:47:06.093Z,60.19
2022-11-23T10:49:35.652Z,60.46
2022-11-23T10:52:26.750Z,60.80
2022-11-23T10:54:57.071Z,60.63
2022-11-23T10:57:46.046Z,61.55
2022-11-23T11:00:13.585Z,61.91
2022-11-23T11:02:46.561Z,61.93
2022-11-23T11:08:21.295Z,61.89
2022-11-23T11:10:57.240Z,62.21
2022-11-23T11:13:27.709Z,62.67
2022-11-23T11:15:57.181Z,63.02
2022-11-23T11:18:36.079Z,62.68
2022-11-23T11:21:07.137Z,63.06
2022-11-23T11:23:39.294Z,63.14
2022-11-23T11:26:11.946Z,63.18
2022-11-23T11:28:44.576Z,63.68
2022-11-23T11:31:36.322Z,63.41
2022-11-23T11:34:24.225Z,63.92
2022-11-23T11:37:04.133Z,64.50
2022-11-23T11:39:54.402Z,64.44
2022-11-23T11:42:34.419Z,64.50
2022-11-23T11:45:05.461Z,65.21
2022-11-23T11:47:39.976Z,65.24
2022-11-23T11:50:30.020Z,64.84
2022-11-23T11:53:05.965Z,65.72
2022-11-23T11:56:02.307Z,65.50
2022-11-23T11:58:33.653Z,65.50
2022-11-23T12:01:12.532Z,65.54
2022-11-23T12:03:58.024Z,65.86
2022-11-23T12:06:46.591Z,66.00
2022-11-23T12:09:19.512Z,65.39
2022-11-23T12:11:47.002Z,66.11
2022-11-23T12:14:16.894Z,65.95
2022-11-23T12:17:37.922Z,65.67
2022-11-23T12:20:23.179Z,65.21
2022-11-23T12:23:15.470Z,66.20
2022-11-23T12:25:58.895Z,65.58
2022-11-23T12:28:43.036Z,66.43
2022-11-23T12:31:31.797Z,66.17
2022-11-23T12:34:20.959Z,66.28
2022-11-23T12:37:00.905Z,66.82
2022-11-23T12:39:56.760Z,66.94
2022-11-23T12:42:44.851Z,67.13
2022-11-23T12:45:33.665Z,67.75
2022-11-23T12:48:36.947Z,66.61
2022-11-23T12:51:19.464Z,67.25
2022-11-23T12:54:13.244Z,67.32
2022-11-23T12:57:05.726Z,67.17
2022-11-23T12:59:53.592Z,66.61
2022-11-23T13:02:54.774Z,66.79
2022-11-23T13:05:56.830Z,66.46
2022-11-23T13:08:36.617Z,66.66
2022-11-23T13:11:32.142Z,67.68
2022-11-23T13:14:07.039Z,67.54
2022-11-23T13:16:46.579Z,67.78
2022-11-23T13:19:42.471Z,68.03
2022-11-23T13:22:16.957Z,68.55
2022-11-23T13:25:03.018Z,68.73
2022-11-23T13:27:42.321Z,68.46
2022-11-23T13:31:07.362Z,69.13
2022-11-23T13:33:37.478Z,69.04
2022-11-23T13:36:11.357Z,69.42
2022-11-23T13:38:43.980Z,69.58
2022-11-23T13:41:39.771Z,68.99
2022-11-23T13:44:24.137Z,69.83
2022-11-23T13:47:00.734Z,70.04
2022-11-23T13:49:34.622Z,70.43
2022-11-23T13:52:26.659Z,71.22
2022-11-23T13:55:14.229Z,71.21
2022-11-23T13:57:44.026Z,71.01
2022-11-23T14:00:45.708Z,71.38
2022-11-23T14:03:48.930Z,71.50
2022-11-23T14:06:25.580Z,70.86
2022-11-23T14:09:03.318Z,70.97
2022-11-23T14:11:41.043Z,71.01
2022-11-23T14:14:19.320Z,71.02
2022-11-23T14:17:07.912Z,71.35
2022-11-23T14:20:23.453Z,72.16
2022-11-23T14:23:24.715Z,71.84
2022-11-23T14:26:10.799Z,71.66
2022-11-23T14:28:57.333Z,72.04
2022-11-23T14:31:57.206Z,73.00
2022-11-23T14:34:48.551Z,72.69
2022-11-23T14:37:53.511Z,72.15
2022-11-23T14:40:54.969Z,71.99
2022-11-23T14:43:23.136Z,72.00
2022-11-23T14:45:50.618Z,70.53
2022-11-23T14:48:33.380Z,70.89
2022-11-23T14:51:03.723Z,70.35
2022-11-23T14:53:43.945Z,70.91
2022-11-23T14:56:24.501Z,70.97
2022-11-23T14:58:52.334Z,71.05
2022-11-23T15:01:23.391Z,71.45
2022-11-23T15:04:01.307Z,71.98
2022-11-23T15:06:38.590Z,72.11
2022-11-23T15:09:38.730Z,72.09
2022-11-23T15:12:24.720Z,71.73
2022-11-23T15:14:54.354Z,71.75
2022-11-23T15:17:22.738Z,71.44
2022-11-23T15:20:01.999Z,71.52
2022-11-23T15:22:33.307Z,71.17
2022-11-23T15:25:11.091Z,70.14
2022-11-23T15:27:45.467Z,70.04
2022-11-23T15:30:39.873Z,70.50
2022-11-23T15:33:11.840Z,70.71
2022-11-23T15:35:40.492Z,71.43
2022-11-23T15:38:22.072Z,71.09
2022-11-23T15:40:51.821Z,71.61
2022-11-23T15:43:20.580Z,71.51
2022-11-23T15:45:48.597Z,71.23
2022-11-23T15:48:19.990Z,70.85
2022-11-23T15:50:53.329Z,69.94
2022-11-23T15:53:44.416Z,71.21
2022-11-23T15:56:34.960Z,71.37
2022-11-23T15:59:05.847Z,72.34
2022-11-23T16:01:33.460Z,72.90
2022-11-23T16:04:07.590Z,73.45
2022-11-23T16:06:38.100Z,73.74
2022-11-23T16:09:54.622Z,74.85
2022-11-23T16:12:31.009Z,74.41
2022-11-23T16:15:19.232Z,75.08
2022-11-23T16:17:47.070Z,75.39
2022-11-23T16:23:57.273Z,75.97
2022-11-23T16:26:34.636Z,76.05
2022-11-23T16:29:11.501Z,75.52
2022-11-23T16:31:40.998Z,75.04
2022-11-23T16:34:18.995Z,74.73
2022-11-23T16:36:46.892Z,73.55
2022-11-23T16:39:16.794Z,73.78
2022-11-23T16:41:44.764Z,73.85
2022-11-23T16:44:18.627Z,73.37
2022-11-23T16:46:50.893Z,73.04
2022-11-23T16:49:22.639Z,73.30
2022-11-23T16:51:57.439Z,72.99
2022-11-23T16:58:02.165Z,74.17
2022-11-23T17:00:31.229Z,74.32
2022-11-23T17:02:58.691Z,75.11
2022-11-23T17:05:26.253Z,75.21
2022-11-23T17:07:53.812Z,75.69
2022-11-23T17:10:21.450Z,75.72
2022-11-23T17:12:54.401Z,75.77
2022-11-23T17:15:24.144Z,76.11
2022-11-23T17:17:52.126Z,75.97
2022-11-23T17:20:20.179Z,76.67
2022-11-23T17:22:52.385Z,76.24
2022-11-23T17:25:20.137Z,76.74
2022-11-23T17:27:47.982Z,76.98
2022-11-23T17:30:18.374Z,77.56
2022-11-23T17:32:49.227Z,77.80
2022-11-23T17:35:18.096Z,78.16
2022-11-23T17:37:46.750Z,77.93
2022-11-23T17:40:19.828Z,77.94
2022-11-23T17:42:52.680Z,77.85
2022-11-23T17:45:23.811Z,78.24
2022-11-23T17:47:58.267Z,77.87
2022-11-23T17:50:29.125Z,78.49
2022-11-23T17:52:56.912Z,78.83
2022-11-23T17:55:24.757Z,78.74
2022-11-23T17:57:52.364Z,79.07
2022-11-23T18:00:22.665Z,78.90
2022-11-23T18:02:51.034Z,79.25
2022-11-23T18:05:21.907Z,78.98
2022-11-23T18:07:51.285Z,79.97
2022-11-23T18:10:19.985Z,79.94
2022-11-23T18:12:51.257Z,79.56
2022-11-23T18:15:19.031Z,80.21
2022-11-23T18:17:46.844Z,80.09
2022-11-23T18:20:15.919Z,79.87
2022-11-23T18:22:43.645Z,80.13
2022-11-23T18:25:11.483Z,80.19
2022-11-23T18:27:41.871Z,80.24
2022-11-23T18:30:09.955Z,79.78
2022-11-23T18:32:37.596Z,80.31
2022-11-23T18:35:07.275Z,80.13
2022-11-23T18:37:35.920Z,79.91
2022-11-23T18:40:03.756Z,80.77
2022-11-23T18:42:31.458Z,81.07
2022-11-23T18:44:59.130Z,81.94
2022-11-23T18:47:26.781Z,81.73
2022-11-23T18:49:54.962Z,80.67
2022-11-23T18:52:22.613Z,81.22
2022-11-23T18:54:50.364Z,80.54
2022-11-23T18:57:18.628Z,80.95
2022-11-23T18:59:57.940Z,79.90
2022-11-23T19:02:27.026Z,81.38
2022-11-23T19:04:54.624Z,81.34
2022-11-23T19:07:27.133Z,81.79
2022-11-23T19:09:55.359Z,82.98
2022-11-23T19:12:22.944Z,83.68
2022-11-23T19:14:50.685Z,84.31
2022-11-23T19:17:19.639Z,84.90
2022-11-23T19:19:47.274Z,85.58
2022-11-23T19:22:14.988Z,85.77
2022-11-23T19:24:45.410Z,86.49
2022-11-23T19:27:13.036Z,86.73
2022-11-23T19:29:40.708Z,87.35
2022-11-23T19:32:08.580Z,87.95
2022-11-23T19:34:36.269Z,88.12
2022-11-23T19:37:03.857Z,88.02
2022-11-23T19:39:31.715Z,87.56
2022-11-23T19:42:00.152Z,86.97
2022-11-23T19:44:27.625Z,86.86
2022-11-23T19:46:56.558Z,86.69
2022-11-23T19:49:24.271Z,85.88
2022-11-23T19:51:54.133Z,85.78
2022-11-23T19:54:21.845Z,85.30
2022-11-23T19:56:52.666Z,85.09
2022-11-23T19:59:20.257Z,84.11
2022-11-23T20:01:47.853Z,84.54
2022-11-23T20:04:16.605Z,83.06
2022-11-23T20:06:44.066Z,83.26
2022-11-23T20:09:17.148Z,83.50
2022-11-23T20:11:50.303Z,83.46
2022-11-23T20:14:18.743Z,83.13
2022-11-23T20:16:48.104Z,82.78
2022-11-23T20:19:15.583Z,83.06
2022-11-23T20:21:43.011Z,83.13
2022-11-23T20:24:12.914Z,83.86
2022-11-23T20:26:41.519Z,84.47
2022-11-23T20:29:09.524Z,84.13
2022-11-23T20:31:37.728Z,83.79
2022-11-23T20:34:08.154Z,84.13
2022-11-23T20:36:37.710Z,84.43
2022-11-23T20:39:08.232Z,84.67
2022-11-23T20:41:37.383Z,84.96
2022-11-23T20:44:07.400Z,84.57
2022-11-23T20:49:22.404Z,85.37
2022-11-23T20:51:49.801Z,85.31
2022-11-23T20:54:19.344Z,86.23
2022-11-23T20:56:46.858Z,85.46
2022-11-23T20:59:14.478Z,85.51
2022-11-23T21:01:42.054Z,85.85
2022-11-23T21:04:09.573Z,85.61
2022-11-23T21:06:39.519Z,86.39
2022-11-23T21:09:09.561Z,86.41
2022-11-23T21:11:55.946Z,85.42
2022-11-23T21:14:28.065Z,86.28
2022-11-23T21:16:59.044Z,85.64
2022-11-23T21:19:31.005Z,85.85
2022-11-23T21:22:00.628Z,86.35
2022-11-23T21:24:28.811Z,85.48
2022-11-23T21:26:56.285Z,85.63
2022-11-23T21:29:24.084Z,86.53
2022-11-23T21:31:51.497Z,86.09
2022-11-23T21:34:24.319Z,85.68
2022-11-23T21:36:53.462Z,85.16
2022-11-23T21:39:20.938Z,84.81
2022-11-23T21:41:51.303Z,85.65
2022-11-23T21:44:18.754Z,84.99
2022-11-23T21:46:46.547Z,84.25
2022-11-23T21:49:14.017Z,84.14
2022-11-23T21:51:42.826Z,84.21
2022-11-23T21:54:14.369Z,84.45
2022-11-23T21:56:46.290Z,84.39
2022-11-23T21:59:14.250Z,83.76
2022-11-23T22:01:42.275Z,84.77
2022-11-23T22:04:15.746Z,84.11
2022-11-23T22:06:44.718Z,83.90
2022-11-23T22:09:12.996Z,83.67
2022-11-23T22:11:43.253Z,84.30
2022-11-23T22:14:13.617Z,84.17
2022-11-23T22:16:43.509Z,83.06
2022-11-23T22:19:12.341Z,82.85
2022-11-23T22:21:41.188Z,83.77
2022-11-23T22:24:13.429Z,83.52
2022-11-23T22:26:41.500Z,83.10
2022-11-23T22:29:09.398Z,83.17
2022-11-23T22:31:37.170Z,82.47
2022-11-23T22:34:07.441Z,83.25
2022-11-23T22:36:35.203Z,83.34
2022-11-23T22:39:06.124Z,83.17
2022-11-23T22:41:37.205Z,84.08
2022-11-23T22:44:10.006Z,82.98
2022-11-23T22:46:38.856Z,83.35
2022-11-23T22:49:06.323Z,83.75
2022-11-23T22:51:34.073Z,84.14
2022-11-23T22:54:02.280Z,84.12
2022-11-23T22:56:31.060Z,83.89
2022-11-23T22:58:59.270Z,83.00
2022-11-23T23:01:29.185Z,82.35
2022-11-23T23:04:01.883Z,81.67
2022-11-23T23:06:34.300Z,82.57
2022-11-23T23:09:03.019Z,82.32
2022-11-23T23:11:32.283Z,82.33
2022-11-23T23:13:59.920Z,82.33
2022-11-23T23:16:27.606Z,82.32
2022-11-23T23:18:57.072Z,82.27
2022-11-23T23:21:26.414Z,81.50
2022-11-23T23:23:55.940Z,82.14
2022-11-23T23:26:25.404Z,82.15
2022-11-23T23:28:57.444Z,82.46
2022-11-23T23:31:25.629Z,81.94
2022-11-23T23:33:53.904Z,81.88
2022-11-23T23:36:23.221Z,83.53
2022-11-23T23:38:51.178Z,82.36
2022-11-23T23:41:19.059Z,83.10
2022-11-23T23:43:48.418Z,82.83
2022-11-23T23:46:16.699Z,83.72
2022-11-23T23:48:44.343Z,83.91
2022-11-23T23:51:21.351Z,84.12
2022-11-23T23:53:52.956Z,82.75
2022-11-23T23:56:23.533Z,82.40
2022-11-23T23:58:51.582Z,81.82
